createdAt,value
2023-11-12T00:00:36.535Z,100.00
2023-11-12T00:03:24.761Z,100.00
2023-11-12T00:06:13.498Z,100.00
2023-11-12T00:09:05.554Z,97.44
2023-11-12T00:11:53.623Z,97.28
2023-11-12T00:14:46.670Z,96.31
2023-11-12T00:17:34.975Z,100.00
2023-11-12T00:20:26.374Z,94.11
2023-11-12T00:23:15.126Z,95.48
2023-11-12T00:26:05.056Z,96.31
2023-11-12T00:28:53.433Z,97.57
2023-11-12T00:31:41.590Z,95.76
2023-11-12T00:34:29.701Z,93.43
2023-11-12T00:37:17.500Z,91.86
2023-11-12T00:40:05.816Z,89.93
2023-11-12T00:42:55.329Z,92.09
2023-11-12T00:45:43.334Z,90.43
2023-11-12T00:48:31.426Z,90.23
2023-11-12T00:51:19.637Z,90.37
2023-11-12T00:54:07.639Z,90.69
2023-11-12T00:56:55.550Z,90.43
2023-11-12T00:59:44.831Z,90.65
2023-11-12T01:02:33.244Z,91.93
2023-11-12T01:05:22.054Z,91.28
2023-11-12T01:08:09.946Z,93.81
2023-11-12T01:10:58.986Z,95.57
2023-11-12T01:13:47.380Z,92.29
2023-11-12T01:16:39.003Z,93.30
2023-11-12T01:19:27.263Z,96.03
2023-11-12T01:22:15.376Z,98.06
2023-11-12T01:25:03.868Z,94.71
2023-11-12T01:27:51.722Z,96.08
2023-11-12T01:30:41.747Z,96.48
2023-11-12T01:33:31.400Z,95.53
2023-11-12T01:36:19.289Z,98.06
2023-11-12T01:39:09.300Z,100.00
2023-11-12T01:41:57.307Z,98.84
2023-11-12T01:44:45.489Z,98.84
2023-11-12T01:47:33.511Z,99.66
2023-11-12T01:50:23.590Z,98.98
2023-11-12T01:53:15.679Z,99.17
2023-11-12T01:56:05.506Z,97.10
2023-11-12T01:58:56.764Z,97.08
2023-11-12T02:01:45.161Z,95.34
2023-11-12T02:04:33.173Z,95.03
2023-11-12T02:07:26.275Z,94.36
2023-11-12T02:10:16.283Z,96.19
2023-11-12T02:13:05.861Z,96.27
2023-11-12T02:15:55.723Z,96.34
2023-11-12T02:18:48.087Z,96.28
2023-11-12T02:21:36.036Z,97.57
2023-11-12T02:24:26.069Z,95.67
2023-11-12T02:27:14.021Z,97.41
2023-11-12T02:30:02.261Z,97.59
2023-11-12T02:32:50.184Z,95.99
2023-11-12T02:35:44.093Z,96.57
2023-11-12T02:38:32.566Z,97.62
2023-11-12T02:41:24.174Z,96.82
2023-11-12T02:44:13.232Z,96.17
2023-11-12T02:47:01.069Z,96.50
2023-11-12T02:50:06.941Z,96.21
2023-11-12T02:52:54.873Z,97.08
2023-11-12T02:55:43.715Z,100.00
2023-11-12T02:58:34.000Z,97.45
2023-11-12T03:01:22.209Z,95.90
2023-11-12T03:04:11.234Z,96.43
2023-11-12T03:06:59.332Z,97.63
2023-11-12T03:09:47.361Z,97.31
2023-11-12T03:12:35.434Z,95.69
2023-11-12T03:15:26.887Z,96.78
2023-11-12T03:18:15.007Z,99.49
2023-11-12T03:21:06.101Z,97.17
2023-11-12T03:23:54.238Z,97.09
2023-11-12T03:26:42.226Z,97.11
2023-11-12T03:29:30.214Z,97.60
2023-11-12T03:32:22.652Z,97.41
2023-11-12T03:35:11.029Z,97.79
2023-11-12T03:37:58.908Z,98.93
2023-11-12T03:40:47.017Z,98.56
2023-11-12T03:43:34.853Z,95.70
2023-11-12T03:46:23.263Z,96.10
2023-11-12T03:49:13.023Z,97.53
2023-11-12T03:52:00.861Z,95.53
2023-11-12T03:54:49.004Z,95.32
2023-11-12T03:57:36.922Z,95.72
2023-11-12T04:00:25.542Z,94.89
2023-11-12T04:03:13.640Z,95.81
2023-11-12T04:06:03.086Z,95.13
2023-11-12T04:08:51.217Z,96.60
2023-11-12T04:11:41.508Z,97.95
2023-11-12T04:14:29.687Z,97.38
2023-11-12T04:17:19.205Z,98.68
2023-11-12T04:20:09.776Z,98.62
2023-11-12T04:22:59.185Z,100.00
2023-11-12T04:25:49.264Z,97.32
2023-11-12T04:28:37.147Z,99.18
2023-11-12T04:31:25.240Z,99.38
2023-11-12T04:34:13.130Z,100.00
2023-11-12T04:37:01.800Z,100.00
2023-11-12T04:39:51.571Z,97.31
2023-11-12T04:42:40.372Z,100.00
2023-11-12T04:45:28.291Z,100.00
2023-11-12T04:48:16.412Z,98.08
2023-11-12T04:51:04.381Z,100.00
2023-11-12T04:53:52.836Z,97.38
2023-11-12T04:56:47.968Z,100.00
2023-11-12T04:59:36.798Z,99.88
2023-11-12T05:02:24.851Z,100.00
2023-11-12T05:05:13.278Z,97.72
2023-11-12T05:08:03.056Z,97.12
2023-11-12T05:10:51.155Z,99.96
2023-11-12T05:13:40.531Z,99.54
2023-11-12T05:16:28.565Z,99.18
2023-11-12T05:19:16.768Z,100.00
2023-11-12T05:22:05.123Z,98.63
2023-11-12T05:24:53.152Z,100.00
2023-11-12T05:27:41.319Z,99.04
2023-11-12T05:30:30.845Z,99.56
2023-11-12T05:33:19.062Z,100.00
2023-11-12T05:36:07.815Z,99.31
2023-11-12T05:38:55.804Z,100.00
2023-11-12T05:41:43.742Z,100.00
2023-11-12T05:44:31.945Z,99.09
2023-11-12T05:47:22.381Z,100.00
2023-11-12T05:50:13.816Z,99.87
2023-11-12T05:53:01.574Z,100.00
2023-11-12T05:55:49.437Z,96.45
2023-11-12T05:58:37.278Z,96.55
2023-11-12T06:01:25.256Z,97.80
2023-11-12T06:04:14.752Z,95.66
2023-11-12T06:07:02.851Z,100.00
2023-11-12T06:09:50.858Z,97.26
2023-11-12T06:12:38.716Z,97.05
2023-11-12T06:15:28.474Z,97.88
2023-11-12T06:18:16.752Z,100.00
2023-11-12T06:21:06.513Z,97.38
2023-11-12T06:23:54.954Z,97.74
2023-11-12T06:26:43.773Z,94.71
2023-11-12T06:29:31.805Z,96.68
2023-11-12T06:32:19.658Z,95.36
2023-11-12T06:35:08.616Z,98.27
2023-11-12T06:37:58.078Z,96.05
2023-11-12T06:40:46.026Z,95.16
2023-11-12T06:43:34.077Z,98.29
2023-11-12T06:46:23.216Z,94.49
2023-11-12T06:49:11.902Z,94.40
2023-11-12T06:52:00.455Z,95.71
2023-11-12T06:54:50.193Z,93.66
2023-11-12T06:57:38.334Z,94.34
2023-11-12T07:00:26.294Z,95.08
2023-11-12T07:03:14.623Z,93.68
2023-11-12T07:06:04.825Z,95.36
2023-11-12T07:08:52.574Z,96.11
2023-11-12T07:11:42.185Z,93.39
2023-11-12T07:14:30.663Z,91.05
2023-11-12T07:17:19.369Z,91.35
2023-11-12T07:20:10.483Z,92.38
2023-11-12T07:22:58.302Z,90.18
2023-11-12T07:25:46.151Z,90.44
2023-11-12T07:28:35.570Z,91.37
2023-11-12T07:31:25.506Z,90.51
2023-11-12T07:34:13.669Z,86.15
2023-11-12T07:37:07.196Z,88.73
2023-11-12T07:39:55.272Z,85.11
2023-11-12T07:42:43.372Z,84.45
2023-11-12T07:45:38.275Z,84.95
2023-11-12T07:48:29.252Z,86.69
2023-11-12T07:51:17.185Z,87.48
2023-11-12T07:54:05.732Z,84.77
2023-11-12T07:56:53.618Z,81.19
2023-11-12T07:59:41.470Z,81.62
2023-11-12T08:02:30.742Z,80.53
2023-11-12T08:05:20.284Z,73.68
2023-11-12T08:08:09.219Z,74.39
2023-11-12T08:10:57.623Z,73.58
2023-11-12T08:13:45.759Z,70.64
2023-11-12T08:16:33.580Z,69.56
2023-11-12T08:19:23.462Z,69.76
2023-11-12T08:22:11.352Z,70.65
2023-11-12T08:24:59.273Z,67.90
2023-11-12T08:27:47.999Z,68.72
2023-11-12T08:30:35.966Z,69.64
2023-11-12T08:33:24.052Z,69.36
2023-11-12T08:36:13.918Z,67.10
2023-11-12T08:39:05.134Z,68.78
2023-11-12T08:41:53.859Z,68.15
2023-11-12T08:44:41.851Z,68.08
2023-11-12T08:47:30.019Z,68.54
2023-11-12T08:50:18.010Z,67.54
2023-11-12T08:53:08.708Z,65.39
2023-11-12T08:55:56.812Z,64.38
2023-11-12T08:58:44.866Z,62.62
2023-11-12T09:01:36.270Z,63.12
2023-11-12T09:04:24.832Z,62.45
2023-11-12T09:07:12.756Z,65.75
2023-11-12T09:10:01.959Z,64.91
2023-11-12T09:12:49.997Z,68.50
2023-11-12T09:15:38.092Z,70.57
2023-11-12T09:18:28.708Z,70.67
2023-11-12T09:21:16.953Z,70.13
2023-11-12T09:24:05.600Z,69.88
2023-11-12T09:26:54.810Z,69.89
2023-11-12T09:29:42.670Z,68.74
2023-11-12T09:32:30.784Z,68.36
2023-11-12T09:35:19.933Z,66.97
2023-11-12T09:38:07.925Z,67.93
2023-11-12T09:41:00.729Z,66.77
2023-11-12T09:43:52.005Z,66.76
2023-11-12T09:46:41.337Z,65.42
2023-11-12T09:49:31.461Z,64.19
2023-11-12T09:52:19.394Z,64.30
2023-11-12T09:55:09.456Z,63.77
2023-11-12T09:57:58.305Z,63.40
2023-11-12T10:00:47.750Z,63.08
2023-11-12T10:03:36.089Z,61.87
2023-11-12T10:06:24.535Z,61.55
2023-11-12T10:09:12.665Z,61.29
2023-11-12T10:12:05.215Z,58.97
2023-11-12T10:15:03.374Z,60.32
2023-11-12T10:17:53.448Z,60.86
2023-11-12T10:20:43.619Z,59.91
2023-11-12T10:23:33.780Z,59.46
2023-11-12T10:26:21.887Z,56.96
2023-11-12T10:29:20.813Z,56.70
2023-11-12T10:32:09.032Z,58.19
2023-11-12T10:34:58.517Z,57.11
2023-11-12T10:37:57.275Z,58.18
2023-11-12T10:41:01.955Z,54.92
2023-11-12T10:44:00.170Z,51.50
2023-11-12T10:46:54.332Z,50.74
2023-11-12T10:49:44.103Z,52.99
2023-11-12T10:52:34.350Z,49.78
2023-11-12T10:55:24.500Z,49.65
2023-11-12T10:58:13.532Z,49.55
2023-11-12T11:01:03.518Z,47.67
2023-11-12T11:03:53.440Z,49.71
2023-11-12T11:06:43.598Z,48.90
2023-11-12T11:09:33.395Z,49.47
2023-11-12T11:12:23.540Z,48.06
2023-11-12T11:15:43.362Z,48.99
2023-11-12T11:18:53.935Z,49.00
2023-11-12T11:21:43.125Z,48.23
2023-11-12T11:24:46.658Z,47.70
2023-11-12T11:27:34.941Z,49.49
2023-11-12T11:30:24.825Z,48.32
2023-11-12T11:33:13.792Z,49.54
2023-11-12T11:36:10.234Z,50.98
2023-11-12T11:39:26.419Z,48.75
2023-11-12T11:42:17.380Z,48.14
2023-11-12T11:45:09.727Z,49.08
2023-11-12T11:48:06.381Z,49.96
2023-11-12T11:50:57.392Z,47.21
2023-11-12T11:53:46.911Z,48.46
2023-11-12T11:56:35.655Z,46.95
2023-11-12T11:59:26.095Z,48.69
2023-11-12T12:02:17.446Z,47.81
2023-11-12T12:05:06.384Z,45.26
2023-11-12T12:08:01.511Z,46.16
2023-11-12T12:10:49.548Z,47.26
2023-11-12T12:13:41.559Z,46.72
2023-11-12T12:16:32.772Z,45.53
2023-11-12T12:19:23.538Z,47.62
2023-11-12T12:22:12.124Z,48.16
2023-11-12T12:25:00.115Z,46.64
2023-11-12T12:27:57.398Z,48.49
2023-11-12T12:30:52.169Z,45.41
2023-11-12T12:33:41.488Z,45.02
2023-11-12T12:36:29.476Z,47.10
2023-11-12T12:39:20.052Z,48.33
2023-11-12T12:42:11.072Z,50.53
2023-11-12T12:44:59.925Z,49.15
2023-11-12T12:47:49.200Z,52.26
2023-11-12T12:50:38.623Z,54.47
2023-11-12T12:53:26.981Z,53.77
2023-11-12T12:56:15.651Z,53.39
2023-11-12T12:59:03.713Z,52.74
2023-11-12T13:01:51.669Z,52.62
2023-11-12T13:04:40.806Z,52.38
2023-11-12T13:07:30.301Z,51.35
2023-11-12T13:10:21.560Z,52.21
2023-11-12T13:13:09.638Z,52.62
2023-11-12T13:15:57.703Z,51.92
2023-11-12T13:18:48.666Z,52.65
2023-11-12T13:21:51.343Z,51.13
2023-11-12T13:24:45.889Z,50.76
2023-11-12T13:27:34.090Z,50.28
2023-11-12T13:30:22.160Z,51.94
2023-11-12T13:33:10.860Z,54.27
2023-11-12T13:36:02.791Z,50.71
2023-11-12T13:38:51.142Z,51.46
2023-11-12T13:41:40.418Z,51.18
2023-11-12T13:44:33.401Z,53.01
2023-11-12T13:47:22.413Z,50.69
2023-11-12T13:50:12.819Z,53.53
2023-11-12T13:53:02.223Z,53.06
2023-11-12T13:55:52.223Z,53.78
2023-11-12T13:58:44.615Z,53.74
2023-11-12T14:01:33.897Z,53.24
2023-11-12T14:04:22.371Z,53.82
2023-11-12T14:07:11.279Z,52.84
2023-11-12T14:09:59.458Z,57.51
2023-11-12T14:12:48.199Z,52.72
2023-11-12T14:15:37.391Z,55.10
2023-11-12T14:18:25.290Z,54.49
2023-11-12T14:21:13.819Z,55.18
2023-11-12T14:24:03.051Z,55.53
2023-11-12T14:26:51.239Z,56.38
2023-11-12T14:29:39.285Z,58.04
2023-11-12T14:32:28.607Z,58.92
2023-11-12T14:35:17.637Z,59.73
2023-11-12T14:38:06.543Z,65.78
2023-11-12T14:40:55.092Z,61.82
2023-11-12T14:43:42.931Z,61.52
2023-11-12T14:46:35.689Z,60.11
2023-11-12T14:49:27.315Z,58.33
2023-11-12T14:52:16.476Z,56.81
2023-11-12T14:55:08.496Z,58.17
2023-11-12T14:58:00.467Z,59.66
2023-11-12T15:00:48.755Z,59.80
2023-11-12T15:03:37.912Z,64.48
2023-11-12T15:06:28.529Z,62.73
2023-11-12T15:09:16.541Z,69.82
2023-11-12T15:12:04.662Z,71.49
2023-11-12T15:14:52.471Z,72.52
2023-11-12T15:17:41.351Z,69.00
2023-11-12T15:20:29.448Z,68.58
2023-11-12T15:23:19.722Z,68.52
2023-11-12T15:26:07.599Z,71.27
2023-11-12T15:28:56.610Z,69.44
2023-11-12T15:31:44.625Z,69.74
2023-11-12T15:34:32.432Z,72.71
2023-11-12T15:37:20.690Z,72.23
2023-11-12T15:40:19.454Z,71.73
2023-11-12T15:43:09.303Z,73.90
2023-11-12T15:45:58.645Z,76.18
2023-11-12T15:48:47.988Z,71.80
2023-11-12T15:51:36.095Z,71.87
2023-11-12T15:54:24.182Z,72.00
2023-11-12T15:57:14.924Z,74.34
2023-11-12T16:00:04.269Z,73.39
2023-11-12T16:02:55.035Z,74.75
2023-11-12T16:05:47.593Z,74.29
2023-11-12T16:08:36.948Z,74.54
2023-11-12T16:11:29.205Z,75.36
2023-11-12T16:14:19.842Z,74.66
2023-11-12T16:17:07.736Z,76.12
2023-11-12T16:19:57.591Z,73.75
2023-11-12T16:22:46.700Z,74.89
2023-11-12T16:25:34.719Z,74.68
2023-11-12T16:28:23.860Z,73.67
2023-11-12T16:31:13.540Z,75.76
2023-11-12T16:34:01.728Z,73.68
2023-11-12T16:36:49.792Z,72.63
2023-11-12T16:39:44.666Z,74.12
2023-11-12T16:42:32.844Z,74.65
2023-11-12T16:45:22.090Z,73.38
2023-11-12T16:48:11.573Z,73.72
2023-11-12T16:50:59.548Z,72.16
2023-11-12T16:53:47.410Z,71.51
2023-11-12T16:56:36.722Z,72.11
2023-11-12T16:59:24.619Z,72.83
2023-11-12T17:02:15.387Z,73.50
2023-11-12T17:05:06.077Z,73.50
2023-11-12T17:07:54.014Z,74.50
2023-11-12T17:10:42.269Z,74.85
2023-11-12T17:13:34.156Z,75.76
2023-11-12T17:16:23.471Z,75.05
2023-11-12T17:19:12.331Z,75.25
2023-11-12T17:22:02.339Z,74.81
2023-11-12T17:24:51.099Z,74.54
2023-11-12T17:27:39.219Z,74.56
2023-11-12T17:30:27.710Z,75.99
2023-11-12T17:33:15.776Z,79.22
2023-11-12T17:36:04.352Z,75.90
2023-11-12T17:38:53.805Z,75.91
2023-11-12T17:41:41.974Z,77.55
2023-11-12T17:44:30.410Z,75.71
2023-11-12T17:47:18.699Z,74.36
2023-11-12T17:50:08.145Z,74.56
2023-11-12T17:52:56.154Z,74.06
2023-11-12T17:55:46.810Z,74.23
2023-11-12T17:58:35.045Z,73.37
2023-11-12T18:01:24.621Z,73.49
2023-11-12T18:04:13.383Z,73.91
2023-11-12T18:07:02.150Z,74.00
2023-11-12T18:09:50.274Z,74.34
2023-11-12T18:12:40.381Z,78.71
2023-11-12T18:15:29.943Z,75.24
2023-11-12T18:18:18.890Z,76.09
2023-11-12T18:21:07.320Z,76.43
2023-11-12T18:23:55.665Z,76.27
2023-11-12T18:26:48.347Z,75.45
2023-11-12T18:29:37.897Z,77.52
2023-11-12T18:32:26.279Z,76.58
2023-11-12T18:35:15.180Z,76.58
2023-11-12T18:38:05.210Z,75.82
2023-11-12T18:40:53.570Z,75.95
2023-11-12T18:43:42.025Z,75.60
2023-11-12T18:46:31.888Z,76.11
2023-11-12T18:49:20.392Z,77.41
2023-11-12T18:52:09.020Z,81.36
2023-11-12T18:54:58.987Z,78.07
2023-11-12T18:57:47.973Z,78.38
2023-11-12T19:00:37.615Z,77.61
2023-11-12T19:03:30.828Z,80.00
2023-11-12T19:06:19.250Z,78.86
2023-11-12T19:09:09.103Z,77.09
2023-11-12T19:11:57.237Z,77.74
2023-11-12T19:14:45.752Z,76.69
2023-11-12T19:17:34.137Z,76.86
2023-11-12T19:20:26.390Z,78.21
2023-11-12T19:23:14.781Z,79.33
2023-11-12T19:26:03.068Z,78.78
2023-11-12T19:28:51.809Z,78.24
2023-11-12T19:31:40.212Z,79.07
2023-11-12T19:34:29.379Z,78.33
2023-11-12T19:37:21.205Z,81.65
2023-11-12T19:40:10.535Z,79.82
2023-11-12T19:42:58.967Z,82.73
2023-11-12T19:45:49.275Z,79.49
2023-11-12T19:48:37.843Z,81.09
2023-11-12T19:51:25.882Z,81.89
2023-11-12T19:54:19.760Z,82.06
2023-11-12T19:57:08.244Z,81.48
2023-11-12T19:59:57.225Z,83.00
2023-11-12T20:02:45.400Z,83.53
2023-11-12T20:05:39.036Z,82.03
2023-11-12T20:08:27.308Z,80.32
2023-11-12T20:11:18.632Z,80.44
2023-11-12T20:14:08.166Z,78.97
2023-11-12T20:16:59.254Z,80.72
2023-11-12T20:19:47.700Z,81.25
2023-11-12T20:22:35.573Z,80.93
2023-11-12T20:25:26.269Z,80.39
2023-11-12T20:28:15.946Z,80.72
2023-11-12T20:31:04.584Z,80.33
2023-11-12T20:33:54.410Z,81.16
2023-11-12T20:36:42.652Z,80.38
2023-11-12T20:39:31.160Z,82.23
2023-11-12T20:42:20.335Z,81.47
2023-11-12T20:45:13.451Z,80.96
2023-11-12T20:48:01.800Z,83.00
2023-11-12T20:50:49.938Z,83.09
2023-11-12T20:53:38.076Z,84.35
2023-11-12T20:56:26.198Z,84.81
2023-11-12T20:59:14.760Z,84.66
2023-11-12T21:02:14.122Z,84.42
2023-11-12T21:05:10.765Z,85.00
2023-11-12T21:07:59.673Z,82.70
2023-11-12T21:10:47.727Z,82.63
2023-11-12T21:13:36.246Z,82.23
2023-11-12T21:16:24.355Z,81.50
2023-11-12T21:19:13.767Z,80.88
2023-11-12T21:22:02.239Z,78.51
2023-11-12T21:24:50.433Z,78.43
2023-11-12T21:27:39.268Z,77.09
2023-11-12T21:30:27.513Z,76.84
2023-11-12T21:33:17.016Z,78.43
2023-11-12T21:36:07.640Z,76.25
2023-11-12T21:38:57.058Z,76.05
2023-11-12T21:41:45.270Z,75.66
2023-11-12T21:44:33.464Z,75.36
2023-11-12T21:47:24.435Z,76.05
2023-11-12T21:50:16.536Z,75.49
2023-11-12T21:53:06.170Z,75.56
2023-11-12T21:55:58.852Z,75.43
2023-11-12T21:58:46.805Z,75.08
2023-11-12T22:01:34.601Z,75.54
2023-11-12T22:04:26.190Z,76.01
2023-11-12T22:07:15.023Z,74.68
2023-11-12T22:10:05.980Z,76.93
2023-11-12T22:12:55.296Z,75.32
2023-11-12T22:15:43.162Z,75.74
2023-11-12T22:18:31.219Z,76.00
2023-11-12T22:21:19.094Z,76.35
2023-11-12T22:24:08.543Z,76.76
2023-11-12T22:27:01.261Z,77.19
2023-11-12T22:29:49.078Z,77.03
2023-11-12T22:32:37.851Z,77.54
2023-11-12T22:35:26.192Z,77.70
2023-11-12T22:38:14.064Z,78.85
2023-11-12T22:41:01.870Z,78.46
2023-11-12T22:43:50.985Z,79.02
2023-11-12T22:46:38.934Z,80.60
2023-11-12T22:49:26.711Z,81.20
2023-11-12T22:52:15.246Z,81.83
2023-11-12T22:55:04.333Z,83.27
2023-11-12T22:57:52.725Z,85.91
2023-11-12T23:00:50.191Z,88.04
2023-11-12T23:03:39.020Z,89.94
2023-11-12T23:06:28.148Z,91.79
2023-11-12T23:09:19.258Z,92.41
2023-11-12T23:12:09.871Z,94.92
2023-11-12T23:14:57.956Z,97.72
2023-11-12T23:17:47.250Z,99.49
2023-11-12T23:20:35.992Z,99.17
2023-11-12T23:23:24.674Z,100.00
2023-11-12T23:26:12.641Z,100.00
2023-11-12T23:29:00.785Z,100.00
2023-11-12T23:31:48.944Z,100.00
2023-11-12T23:34:38.567Z,100.00
2023-11-12T23:37:26.367Z,100.00
2023-11-12T23:40:15.836Z,100.00
2023-11-12T23:43:03.724Z,100.00
2023-11-12T23:45:51.628Z,100.00
2023-11-12T23:48:39.793Z,100.00
2023-11-12T23:51:29.215Z,100.00
2023-11-12T23:54:17.594Z,100.00
2023-11-12T23:57:06.214Z,100.00
2023-11-12T23:59:54.095Z,100.00
